This is the latest recevied weather packets stored in our database for station/object K9ABJ. If no packets are shown the sender has not sent any weather packets the latest 10 day(s).
| Time | Temp. | Humidity | Pressure | Rain* | Wind** | Luminosity | Snow |
|---|---|---|---|---|---|---|---|
| 1787612852 | 26.11° C | 53% | 1017.5 hPa | 0 mm | - | 124 W/m² | - |
| 1787612547 | 25.56° C | 57% | 1017.6 hPa | 0 mm | - | 141 W/m² | - |
| 1787612243 | 25° C | 57% | 1017.4 hPa | 0 mm | - | 139 W/m² | - |
| 1787611939 | 26.67° C | 53% | 1017.6 hPa | 0 mm | - | 159 W/m² | - |
| 1787611635 | 26.67° C | 51% | 1017.5 hPa | 0 mm | - | 165 W/m² | - |
| 1787611332 | 26.67° C | 54% | 1017.6 hPa | 0 mm | - | 176 W/m² | - |
| 1787611032 | 26.67° C | 53% | 1017.6 hPa | 0 mm | - | 155 W/m² | - |
| 1787610727 | 26.67° C | 52% | 1017.5 hPa | 0 mm | - | 172 W/m² | - |
| 1787610422 | 26.67° C | 53% | 1017.4 hPa | 0 mm | - | 220 W/m² | - |
| 1787610121 | 25.56° C | 54% | 1017.6 hPa | 0 mm | - | 218 W/m² | - |
| 1787609820 | 26.11° C | 53% | 1017.4 hPa | 0 mm | - | 125 W/m² | - |
| 1787609515 | 26.67° C | 51% | 1017.5 hPa | 0 mm | - | 171 W/m² | - |
| 1787609210 | 24.44° C | 54% | 1017.4 hPa | 0 mm | - | 235 W/m² | - |
| 1787608905 | 27.22° C | 51% | 1017.3 hPa | 0 mm | - | 265 W/m² | - |
| 1787608605 | 27.22° C | 52% | 1017.6 hPa | 0 mm | - | 228 W/m² | - |
| 1787608300 | 27.78° C | 51% | 1017.4 hPa | 0 mm | - | 314 W/m² | - |
| 1787607997 | 27.22° C | 52% | 1017.1 hPa | 0 mm | - | 373 W/m² | - |
| 1787607693 | 26.67° C | 54% | 1017.4 hPa | 0 mm | - | 187 W/m² | - |
| 1787607390 | 28.33° C | 49% | 1017.3 hPa | 0 mm | - | 291 W/m² | - |
| 1787607087 | 27.78° C | 51% | 1017.3 hPa | 0 mm | - | 215 W/m² | - |
| 1787606787 | 26.11° C | 57% | 1017.2 hPa | 0 mm | - | 239 W/m² | - |
| 1787606485 | 27.22° C | 52% | 1017.2 hPa | 0 mm | - | 296 W/m² | - |
| 1787606184 | 26.11° C | 55% | 1017.3 hPa | 0 mm | - | 316 W/m² | - |
| 1787605879 | 27.22° C | 56% | 1017.2 hPa | 0 mm | - | 478 W/m² | - |
| 1787605578 | 25° C | 58% | 1017.2 hPa | 0 mm | - | 125 W/m² | - |
* Rain latest hour (hover to see other rain measurements)
** Current wind speed in m/s (hover to see current wind gust speed)